Terminal Aerodrome Forecast
Issued by NWS Billings, MT

Current Version | Previous Version | Text Only | Print | Product List | Glossary On
Versions: 1 2 3 4 5 6 7 8 9 10 11 12 13 14 15 16 17 18 19 20 21 22 23 24
000
FTUS45 KBYZ 311817 RRA
TAFSHR
TAF
KSHR 311817Z 3118/0118 32015G22KT P6SM SCT030 BKN150
     FM312200 32016G25KT 4SM -SN BR BKN025 OVC050
     FM010200 32019G28KT 6SM -SN BKN035 OVC060
     FM010600 33012KT P6SM -SN BKN035 OVC060=

USA.gov is the U.S. government's official web portal to all federal, state and local government web resources and services.